Time;durP1;ratioP1;P1;durP2;ratioP2;P2;SDS_P1;SDS_P2;PMS_P1;PMS_P2;Temp;Humidity;BMP_temperature;BMP_pressure;BME280_temperature;BME280_humidity;BME280_pressure;Samples;Min_cycle;Max_cycle;Signal;HPM_P1;HPM_P2
2023/07/18 00:00:51;;;;;;;10.32;5.40;;;;;;;24.62;75.90;98355.78;4424139;32;20140;-81
2023/07/18 00:03:19;;;;;;;11.20;5.15;;;;;;;24.86;74.00;98359.69;4424151;32;20066;-81
2023/07/18 00:05:46;;;;;;;11.30;5.60;;;;;;;25.03;72.36;98367.69;4423889;32;20054;-81
2023/07/18 00:08:30;;;;;;;9.90;5.30;;;;;;;24.61;74.14;98361.22;4423722;32;20109;-81
2023/07/18 00:10:57;;;;;;;9.55;5.07;;;;;;;24.88;72.41;98355.09;4423972;32;20120;-81
2023/07/18 00:13:24;;;;;;;9.68;5.35;;;;;;;24.82;72.76;98361.81;4424134;32;20070;-81
2023/07/18 00:15:51;;;;;;;10.10;5.55;;;;;;;24.98;71.73;98371.69;4424361;32;20054;-81
2023/07/18 00:18:38;;;;;;;9.77;5.82;;;;;;;25.03;71.55;98367.69;4424183;32;20074;-81
2023/07/18 00:21:05;;;;;;;10.70;5.32;;;;;;;25.00;72.55;98373.25;4441302;27;20110;-81
2023/07/18 00:23:32;;;;;;;10.45;5.50;;;;;;;24.65;74.63;98375.78;4439432;32;20118;-81
2023/07/18 00:25:59;;;;;;;9.65;5.35;;;;;;;24.52;75.21;98355.84;4439134;32;20074;-81
2023/07/18 00:28:31;;;;;;;10.70;5.22;;;;;;;24.46;75.64;98359.06;4425141;32;20094;-81
2023/07/18 00:30:58;;;;;;;9.90;5.20;;;;;;;24.49;74.99;98358.78;4438899;32;20173;-81
2023/07/18 00:33:26;;;;;;;9.32;4.95;;;;;;;25.01;72.10;98380.19;4438996;32;20077;-81
2023/07/18 00:35:53;;;;;;;11.20;5.30;;;;;;;24.66;72.42;98345.78;4439279;32;20067;-81
2023/07/18 00:38:33;;;;;;;12.57;5.40;;;;;;;24.34;74.82;98344.38;4439190;32;20089;-81
2023/07/18 00:41:00;;;;;;;13.30;5.47;;;;;;;24.65;73.33;98339.66;4426274;32;20081;-81
2023/07/18 00:46:04;;;;;;;9.90;5.63;;;;;;;24.45;75.60;98383.75;4598769;26;20127;-80
2023/07/18 00:48:32;;;;;;;9.65;4.93;;;;;;;24.50;75.32;98372.78;4725152;26;21292;-81
2023/07/18 00:51:00;;;;;;;9.88;5.00;;;;;;;25.13;72.95;98364.16;4438320;32;20076;-81
2023/07/18 00:53:28;;;;;;;10.70;4.85;;;;;;;25.16;72.65;98375.22;4459011;26;20098;-81
2023/07/18 00:55:55;;;;;;;9.45;5.37;;;;;;;24.50;75.15;98325.31;4437634;32;20066;-81
2023/07/18 00:58:24;;;;;;;9.25;5.12;;;;;;;24.75;74.37;98326.41;4438920;32;20085;-81
2023/07/18 01:00:52;;;;;;;10.63;5.28;;;;;;;24.97;74.48;98356.84;4436914;32;20085;-81
2023/07/18 01:03:19;;;;;;;10.13;5.80;;;;;;;24.87;75.31;98364.00;4423147;32;20063;-81
2023/07/18 01:05:46;;;;;;;10.00;5.50;;;;;;;24.57;75.95;98336.97;4422247;32;20086;-81
2023/07/18 01:08:20;;;;;;;10.20;5.53;;;;;;;24.38;77.23;98340.50;4422946;32;20086;-81
2023/07/18 01:10:48;;;;;;;9.25;5.05;;;;;;;24.03;79.17;98320.06;4423224;32;20081;-81
2023/07/18 01:13:15;;;;;;;9.88;5.45;;;;;;;24.20;77.76;98332.47;4423744;32;20050;-81
2023/07/18 01:15:43;;;;;;;12.63;5.47;;;;;;;24.23;77.92;98329.56;4476953;27;20070;-79
2023/07/18 01:18:13;;;;;;;10.52;5.40;;;;;;;24.40;77.22;98321.91;5004458;26;20066;-81
2023/07/18 01:20:40;;;;;;;10.38;5.20;;;;;;;24.71;76.15;98354.91;4429614;32;20084;-81
2023/07/18 01:23:08;;;;;;;13.38;5.62;;;;;;;24.94;73.96;98328.12;4900183;26;20053;-80
2023/07/18 01:25:36;;;;;;;9.15;4.97;;;;;;;25.15;73.87;98370.09;5039496;26;20138;-81
2023/07/18 01:31:18;;;;;;;9.10;4.80;;;;;;;25.25;73.63;98357.66;4515722;26;20089;-81
2023/07/18 01:33:47;;;;;;;11.75;5.32;;;;;;;24.91;74.18;98329.25;4790604;26;20104;-79
2023/07/18 01:36:15;;;;;;;10.60;5.20;;;;;;;25.11;74.16;98359.03;4638397;27;20078;-79
2023/07/18 01:38:43;;;;;;;13.30;5.30;;;;;;;25.53;71.98;98367.19;4474013;27;20077;-81
2023/07/18 01:41:10;;;;;;;12.02;4.93;;;;;;;25.29;72.31;98341.34;4427833;32;20211;-80
2023/07/18 01:43:37;;;;;;;8.88;5.20;;;;;;;25.63;71.66;98369.75;4440692;32;20078;-80
2023/07/18 01:46:04;;;;;;;12.88;5.37;;;;;;;25.28;72.94;98365.28;4440655;32;20058;-80
2023/07/18 01:48:46;;;;;;;13.10;5.32;;;;;;;25.37;72.62;98359.09;4440316;32;20132;-80
2023/07/18 01:51:13;;;;;;;8.82;4.72;;;;;;;25.02;74.67;98363.37;4440355;32;20085;-80
2023/07/18 01:53:40;;;;;;;11.38;5.82;;;;;;;24.96;74.39;98332.25;4440474;32;20106;-80
2023/07/18 01:56:07;;;;;;;10.20;5.37;;;;;;;24.75;75.49;98326.41;4440276;32;20134;-80
2023/07/18 01:58:44;;;;;;;8.80;5.03;;;;;;;24.79;75.39;98341.81;4439557;32;20094;-80
2023/07/18 02:01:11;;;;;;;10.13;5.37;;;;;;;24.91;75.86;98366.19;4440322;32;20078;-80
2023/07/18 02:03:38;;;;;;;11.55;5.05;;;;;;;24.77;75.84;98341.13;4440468;32;20069;-80
2023/07/18 02:06:05;;;;;;;9.23;5.20;;;;;;;24.48;77.23;98341.28;4440298;32;20119;-80
2023/07/18 02:08:32;;;;;;;11.18;5.25;;;;;;;24.45;77.36;98331.00;4440240;32;20130;-81
2023/07/18 02:10:59;;;;;;;9.98;5.40;;;;;;;24.59;76.60;98327.06;4440512;32;20735;-80
2023/07/18 02:13:26;;;;;;;11.45;5.28;;;;;;;24.93;74.75;98329.09;4440227;32;20054;-80
2023/07/18 02:15:53;;;;;;;10.43;5.12;;;;;;;25.20;74.42;98365.19;4440677;32;20106;-80
2023/07/18 02:18:23;;;;;;;10.40;5.37;;;;;;;25.10;73.54;98352.09;4427436;32;20126;-80
2023/07/18 02:20:50;;;;;;;9.30;5.07;;;;;;;25.14;73.48;98339.41;4440409;32;20106;-80
2023/07/18 02:23:17;;;;;;;12.00;4.70;;;;;;;25.48;72.60;98365.97;4440547;32;20076;-80
2023/07/18 02:25:46;;;;;;;12.05;4.60;;;;;;;25.70;69.95;98341.72;4439820;32;20104;-81
2023/07/18 02:28:37;;;;;;;11.77;4.93;;;;;;;25.32;71.35;98345.53;4439979;32;20077;-80
2023/07/18 02:31:05;;;;;;;11.60;4.68;;;;;;;25.03;74.12;98383.53;4440364;32;20083;-80
2023/07/18 02:33:32;;;;;;;9.50;4.80;;;;;;;24.85;75.27;98379.16;4438888;32;20094;-80
2023/07/18 02:35:59;;;;;;;9.77;4.53;;;;;;;25.14;73.04;98358.72;4437866;32;20070;-80
2023/07/18 02:38:38;;;;;;;9.48;4.30;;;;;;;25.53;70.18;98351.31;4437971;32;20166;-80
2023/07/18 02:41:06;;;;;;;8.90;4.82;;;;;;;25.69;70.57;98377.03;4437470;32;20112;-80
2023/07/18 02:43:33;;;;;;;9.63;4.32;;;;;;;25.62;70.28;98374.16;4439185;32;20077;-81
2023/07/18 02:46:00;;;;;;;8.10;4.62;;;;;;;25.30;71.19;98342.19;4440381;32;20105;-80
2023/07/18 02:48:29;;;;;;;11.70;5.47;;;;;;;25.57;70.54;98351.84;4439608;32;20122;-80
2023/07/18 02:50:56;;;;;;;9.27;4.80;;;;;;;25.81;67.93;98375.00;4439987;32;20090;-80
2023/07/18 02:53:23;;;;;;;9.88;4.60;;;;;;;25.24;72.26;98356.00;4439997;32;20102;-80
2023/07/18 02:55:51;;;;;;;8.63;4.50;;;;;;;25.15;73.26;98370.09;4439786;32;20062;-80
2023/07/18 02:58:25;;;;;;;8.65;4.50;;;;;;;25.38;73.29;98395.91;4439726;32;20074;-80
2023/07/18 03:00:53;;;;;;;15.23;5.07;;;;;;;25.13;73.80;98364.97;4440306;32;20066;-80
2023/07/18 03:03:22;;;;;;;9.77;4.72;;;;;;;24.80;73.66;98359.31;4439887;32;20085;-81
2023/07/18 03:05:53;;;;;;;8.95;4.18;;;;;;;24.55;73.09;98367.06;4439990;32;20115;-80
2023/07/18 03:08:21;;;;;;;9.57;4.40;;;;;;;24.79;71.50;98370.03;4426730;32;20109;-81
2023/07/18 03:10:48;;;;;;;10.63;5.12;;;;;;;25.03;70.61;98374.78;4439608;32;20070;-80
2023/07/18 03:13:15;;;;;;;8.30;4.43;;;;;;;25.79;68.32;98412.19;4439583;32;20077;-80
2023/07/18 03:15:42;;;;;;;8.68;4.62;;;;;;;25.84;67.40;98391.41;4439391;32;20105;-80
2023/07/18 03:18:11;;;;;;;11.07;4.60;;;;;;;25.51;69.42;98390.25;4439086;32;20066;-80
2023/07/18 03:20:41;;;;;;;8.00;4.30;;;;;;;25.91;68.42;98386.31;4439029;32;20073;-80
2023/07/18 03:23:08;;;;;;;12.82;4.62;;;;;;;26.22;66.91;98395.47;4439306;32;20053;-81
2023/07/18 03:25:35;;;;;;;8.88;4.10;;;;;;;26.31;66.24;98414.03;4439141;32;20133;-80
2023/07/18 03:28:09;;;;;;;9.35;4.43;;;;;;;26.27;66.70;98399.47;4438728;32;20080;-80
2023/07/18 03:30:36;;;;;;;9.07;4.43;;;;;;;25.90;68.79;98416.37;4425697;32;20082;-80
2023/07/18 03:33:03;;;;;;;10.95;4.28;;;;;;;26.03;66.44;98402.75;4438775;32;20073;-80
2023/07/18 03:35:31;;;;;;;9.73;4.70;;;;;;;25.55;68.95;98401.37;4438840;32;20118;-80
2023/07/18 03:38:09;;;;;;;11.18;4.53;;;;;;;25.80;69.08;98445.53;4437630;32;20066;-80
2023/07/18 03:40:37;;;;;;;9.88;4.87;;;;;;;25.39;70.90;98407.31;4438138;32;20071;-80
2023/07/18 03:43:04;;;;;;;8.85;4.55;;;;;;;25.61;69.98;98412.12;4438718;32;20058;-78
2023/07/18 03:45:31;;;;;;;10.35;4.78;;;;;;;25.74;69.17;98419.75;4439055;32;20084;-81
2023/07/18 03:47:58;;;;;;;10.07;4.40;;;;;;;26.15;67.35;98436.72;4438898;32;20122;-80
2023/07/18 03:50:25;;;;;;;8.18;4.10;;;;;;;26.70;63.57;98440.91;4439024;32;20061;-80
2023/07/18 03:52:52;;;;;;;8.52;4.37;;;;;;;26.58;64.59;98450.91;4425948;32;20104;-80
2023/07/18 03:55:20;;;;;;;10.38;4.43;;;;;;;26.25;63.66;98410.19;4439105;32;20084;-80
2023/07/18 03:57:48;;;;;;;9.13;4.45;;;;;;;26.02;64.77;98425.72;4439137;32;20079;-80
2023/07/18 04:00:17;;;;;;;9.07;4.37;;;;;;;26.24;65.77;98453.50;4439025;32;20098;-80
2023/07/18 04:02:46;;;;;;;9.18;4.12;;;;;;;26.51;63.07;98423.44;4439222;32;20105;-80
2023/07/18 04:05:15;;;;;;;8.63;4.40;;;;;;;27.05;63.52;98442.59;4439224;32;20084;-80
2023/07/18 04:08:00;;;;;;;10.13;4.30;;;;;;;27.31;61.49;98408.87;4439868;32;20078;-80
2023/07/18 04:10:27;;;;;;;8.75;4.03;;;;;;;28.10;57.73;98451.72;4607694;26;20067;-81
2023/07/18 04:15:49;;;;;;;8.98;4.00;;;;;;;28.91;53.92;98472.84;4502128;27;20155;-80
2023/07/18 04:18:17;;;;;;;7.55;3.70;;;;;;;29.15;52.24;98465.78;4487056;27;20118;-80
2023/07/18 04:20:44;;;;;;;9.05;4.12;;;;;;;29.12;52.54;98444.84;4390152;27;20109;-79
2023/07/18 04:23:11;;;;;;;8.38;3.92;;;;;;;29.59;51.61;98458.91;4379578;32;20071;-79
2023/07/18 04:26:00;;;;;;;14.63;4.30;;;;;;;29.77;50.38;98434.66;4379269;32;20059;-79
2023/07/18 04:28:34;;;;;;;10.40;4.43;;;;;;;30.24;49.36;98463.75;4391756;27;20114;-80
2023/07/18 04:31:02;;;;;;;9.85;4.25;;;;;;;30.18;49.70;98468.97;4373140;27;156480;-80
2023/07/18 04:33:33;;;;;;;9.27;4.37;;;;;;;29.94;50.94;98465.47;4364075;32;20080;-79
2023/07/18 04:36:00;;;;;;;8.10;4.15;;;;;;;30.09;49.63;98472.69;4364760;32;20124;-80
2023/07/18 04:38:41;;;;;;;8.43;4.15;;;;;;;29.93;50.89;98470.97;4364239;32;20122;-80
2023/07/18 04:41:08;;;;;;;8.00;3.87;;;;;;;29.85;50.60;98479.00;4364308;32;20090;-79
2023/07/18 04:43:35;;;;;;;9.02;4.50;;;;;;;28.85;53.16;98473.50;4364621;32;20139;-79
2023/07/18 04:46:04;;;;;;;8.68;4.03;;;;;;;28.47;55.13;98481.22;4364511;32;20067;-80
2023/07/18 04:48:31;;;;;;;8.90;4.68;;;;;;;28.89;53.61;98477.50;4432397;27;20149;-79
2023/07/18 04:51:00;;;;;;;9.52;4.40;;;;;;;28.07;56.08;98470.59;4364023;32;20123;-79
2023/07/18 04:53:29;;;;;;;9.55;4.45;;;;;;;28.04;56.61;98469.13;4364046;32;20071;-78
2023/07/18 04:55:56;;;;;;;8.07;3.97;;;;;;;27.80;57.35;98453.22;4364362;32;20064;-80
2023/07/18 04:58:27;;;;;;;8.60;3.97;;;;;;;27.86;56.32;98442.78;4437484;27;20076;-80
2023/07/18 05:00:56;;;;;;;11.80;4.20;;;;;;;27.34;58.65;98442.19;4379018;32;20126;-80
2023/07/18 05:03:24;;;;;;;9.02;4.15;;;;;;;26.98;59.07;98462.72;4378930;32;20171;-80
2023/07/18 05:05:52;;;;;;;7.82;3.95;;;;;;;26.56;60.80;98468.78;4379102;32;20115;-80
2023/07/18 05:08:21;;;;;;;9.70;4.20;;;;;;;26.29;61.68;98466.28;4378809;32;20087;-80
2023/07/18 05:10:49;;;;;;;11.20;4.37;;;;;;;26.92;60.09;98468.66;4394715;27;20082;-80
2023/07/18 05:13:16;;;;;;;8.57;4.12;;;;;;;27.22;59.18;98475.25;4379073;32;20079;-80
2023/07/18 05:15:43;;;;;;;9.50;4.37;;;;;;;26.78;60.41;98444.41;4378915;32;20083;-80
2023/07/18 05:18:12;;;;;;;7.93;3.90;;;;;;;27.04;59.96;98484.13;4372685;32;20087;-80
2023/07/18 05:20:42;;;;;;;10.73;4.10;;;;;;;27.12;59.20;98483.34;4375655;32;20114;-79
2023/07/18 05:23:09;;;;;;;8.13;4.10;;;;;;;27.24;59.10;98487.34;4377818;32;20106;-79
2023/07/18 05:25:37;;;;;;;8.52;4.12;;;;;;;27.58;58.28;98497.06;4378589;32;20047;-79
2023/07/18 05:28:23;;;;;;;7.62;3.83;;;;;;;27.52;57.03;98493.22;4378412;32;20075;-79
2023/07/18 05:30:50;;;;;;;8.48;3.60;;;;;;;27.76;56.95;98492.50;4378615;32;20084;-80
2023/07/18 05:33:16;;;;;;;11.20;4.50;;;;;;;27.76;56.08;98491.66;4377624;32;20059;-80
2023/07/18 05:35:44;;;;;;;8.32;4.12;;;;;;;28.16;55.19;98488.19;4378085;32;20135;-80
2023/07/18 05:38:30;;;;;;;7.62;3.87;;;;;;;28.48;54.66;98501.44;4378001;32;20815;-80
2023/07/18 05:40:57;;;;;;;8.52;3.92;;;;;;;29.05;53.01;98498.69;4376810;32;20131;-79
2023/07/18 05:43:24;;;;;;;10.07;4.05;;;;;;;28.94;53.65;98498.25;4376458;32;20099;-79
2023/07/18 05:45:51;;;;;;;8.57;4.15;;;;;;;28.76;53.61;98498.41;4377670;32;20075;-79
2023/07/18 05:48:18;;;;;;;11.85;4.35;;;;;;;29.07;53.12;98493.22;4377986;32;20089;-79
2023/07/18 05:50:52;;;;;;;8.38;3.85;;;;;;;29.65;51.46;98491.94;4377885;32;20118;-79
2023/07/18 05:53:34;;;;;;;8.52;4.10;;;;;;;30.39;48.91;98498.38;4377164;32;20067;-79
2023/07/18 05:56:09;;;;;;;8.00;3.92;;;;;;;30.80;47.66;98509.47;4376099;32;20086;-80
2023/07/18 05:58:36;;;;;;;9.15;3.97;;;;;;;30.37;45.97;98499.56;4373412;32;20111;-80
2023/07/18 06:01:12;;;;;;;11.35;4.12;;;;;;;29.37;48.26;98513.69;4374595;32;20118;-79
2023/07/18 06:03:39;;;;;;;9.20;4.03;;;;;;;29.42;47.45;98517.63;4373962;32;20099;-80
2023/07/18 06:06:07;;;;;;;10.18;4.25;;;;;;;29.21;47.32;98521.72;4372710;32;20115;-81
2023/07/18 06:08:34;;;;;;;8.30;3.97;;;;;;;28.76;46.68;98524.97;4365874;32;20130;-83
2023/07/18 06:11:01;;;;;;;8.18;3.70;;;;;;;30.56;42.95;98531.00;4365111;32;20174;-83
2023/07/18 06:13:28;;;;;;;8.45;3.62;;;;;;;29.61;41.77;98534.00;4364704;32;20071;-83
2023/07/18 06:15:55;;;;;;;10.55;3.60;;;;;;;30.35;40.95;98525.53;4365627;32;20126;-83
2023/07/18 06:18:22;;;;;;;8.50;3.67;;;;;;;31.28;38.08;98533.97;4365751;32;20521;-84
2023/07/18 06:20:49;;;;;;;7.30;3.55;;;;;;;31.78;35.86;98542.97;4365710;32;20146;-84
2023/07/18 06:23:17;;;;;;;8.50;3.62;;;;;;;29.95;37.18;98530.16;4365873;32;20091;-83
2023/07/18 06:25:44;;;;;;;9.00;3.60;;;;;;;30.88;35.39;98545.87;4371536;32;20060;-81
2023/07/18 06:28:15;;;;;;;8.65;3.65;;;;;;;30.74;35.37;98531.53;4376768;32;20100;-82
2023/07/18 06:30:42;;;;;;;7.93;3.40;;;;;;;30.34;37.16;98543.34;4366262;32;20721;-78
2023/07/18 06:33:09;;;;;;;8.93;3.33;;;;;;;30.20;37.80;98541.47;4365272;32;20086;-77
2023/07/18 06:35:37;;;;;;;10.15;3.65;;;;;;;30.23;36.66;98546.44;4365016;32;20079;-75
2023/07/18 06:38:04;;;;;;;12.63;3.83;;;;;;;29.63;38.10;98542.63;4364761;32;20095;-75
2023/07/18 06:40:31;;;;;;;8.82;3.60;;;;;;;29.93;38.08;98540.97;4364521;32;20433;-75
2023/07/18 06:42:59;;;;;;;9.43;3.53;;;;;;;30.18;37.63;98535.50;4366198;32;20429;-80
2023/07/18 06:45:26;;;;;;;9.55;3.97;;;;;;;31.35;36.13;98545.50;4377557;32;20060;-79
2023/07/18 06:48:02;;;;;;;11.35;3.53;;;;;;;31.07;34.84;98537.34;4379168;32;20116;-80
2023/07/18 06:50:29;;;;;;;7.30;3.28;;;;;;;30.99;33.46;98544.59;4379962;32;20071;-79
2023/07/18 06:52:57;;;;;;;7.53;3.33;;;;;;;30.77;32.93;98547.16;4379764;32;20109;-79
2023/07/18 06:55:23;;;;;;;9.25;3.70;;;;;;;30.05;34.43;98552.03;4378686;32;20083;-80
2023/07/18 06:57:51;;;;;;;6.47;3.30;;;;;;;29.94;34.91;98558.56;4375545;32;20114;-79
2023/07/18 07:00:19;;;;;;;9.77;3.83;;;;;;;30.59;35.15;98562.59;4374376;32;20070;-79
2023/07/18 07:02:47;;;;;;;9.65;3.65;;;;;;;30.24;33.59;98567.56;4373887;32;20067;-80
2023/07/18 07:05:14;;;;;;;8.27;3.53;;;;;;;29.83;34.67;98556.31;4369412;32;20137;-81
2023/07/18 07:07:41;;;;;;;12.63;3.70;;;;;;;29.14;36.15;98563.28;4365487;32;20466;-80
2023/07/18 07:10:08;;;;;;;8.68;3.42;;;;;;;29.74;35.07;98553.87;4366456;32;20090;-80
2023/07/18 07:12:35;;;;;;;8.02;3.53;;;;;;;28.69;36.61;98554.03;4365039;32;20094;-79
2023/07/18 07:15:04;;;;;;;8.15;3.60;;;;;;;28.04;37.75;98559.31;4372772;32;20113;-80
2023/07/18 07:17:31;;;;;;;7.97;3.78;;;;;;;28.11;39.20;98555.00;4370619;32;20111;-81
2023/07/18 07:19:58;;;;;;;9.30;3.72;;;;;;;28.06;39.45;98564.44;4374422;32;20067;-81
2023/07/18 07:22:25;;;;;;;10.68;3.60;;;;;;;27.61;39.16;98562.97;4373215;32;20106;-81
2023/07/18 07:24:53;;;;;;;9.75;3.62;;;;;;;27.54;39.64;98561.97;4373156;32;20145;-81
2023/07/18 07:27:20;;;;;;;8.82;3.67;;;;;;;27.49;40.81;98564.28;4371514;32;20110;-81
2023/07/18 07:29:47;;;;;;;10.35;3.95;;;;;;;28.29;39.29;98565.50;4373084;32;20115;-82
2023/07/18 07:32:14;;;;;;;11.27;3.90;;;;;;;28.53;39.96;98570.81;4370815;32;20169;-80
2023/07/18 07:34:42;;;;;;;9.60;3.65;;;;;;;27.98;39.99;98575.87;4370383;32;20096;-81
2023/07/18 07:37:10;;;;;;;10.50;4.22;;;;;;;27.70;40.80;98559.41;4372777;32;20055;-81
2023/07/18 07:39:37;;;;;;;10.00;3.80;;;;;;;28.16;40.46;98565.94;4378121;32;20151;-79
2023/07/18 07:42:04;;;;;;;8.05;3.53;;;;;;;28.22;40.35;98556.50;4376822;32;20112;-78
2023/07/18 07:44:31;;;;;;;9.15;3.97;;;;;;;27.78;41.20;98551.47;4377156;32;20696;-79
2023/07/18 07:46:59;;;;;;;11.52;4.05;;;;;;;27.85;41.13;98541.84;4377110;32;20110;-79
2023/07/18 07:49:27;;;;;;;9.00;3.65;;;;;;;28.78;38.81;98547.69;4378674;32;20125;-79
2023/07/18 07:51:54;;;;;;;8.15;3.60;;;;;;;29.28;38.18;98538.63;4378818;32;20099;-81
2023/07/18 07:54:21;;;;;;;8.63;3.90;;;;;;;29.91;36.25;98532.34;4376669;32;20078;-82
2023/07/18 07:56:48;;;;;;;9.35;3.75;;;;;;;30.30;35.33;98530.56;4371788;32;20073;-80
2023/07/18 07:59:15;;;;;;;8.43;3.70;;;;;;;30.33;35.04;98530.22;4374917;32;20063;-81
2023/07/18 08:01:42;;;;;;;10.93;3.87;;;;;;;30.48;35.49;98528.41;4369908;32;20415;-76
2023/07/18 08:04:09;;;;;;;8.13;3.50;;;;;;;31.07;35.45;98526.69;4365215;32;20145;-76
2023/07/18 08:06:37;;;;;;;7.57;3.47;;;;;;;31.49;33.07;98529.69;4364946;32;20082;-76
2023/07/18 08:09:04;;;;;;;9.48;4.18;;;;;;;31.08;33.75;98515.00;4364650;32;20107;-76
2023/07/18 08:11:31;;;;;;;8.93;3.65;;;;;;;31.47;33.68;98524.53;4364264;32;20146;-75
2023/07/18 08:13:58;;;;;;;7.93;3.47;;;;;;;30.70;33.50;98511.59;4364944;32;20593;-76
2023/07/18 08:16:26;;;;;;;8.75;3.67;;;;;;;29.80;33.09;98514.13;4364892;32;20153;-76
2023/07/18 08:18:53;;;;;;;8.45;3.00;;;;;;;30.35;33.84;98523.72;4365484;32;20095;-79
2023/07/18 08:21:20;;;;;;;7.82;3.50;;;;;;;30.15;32.67;98512.72;4366426;32;20091;-81
2023/07/18 08:23:48;;;;;;;9.35;3.83;;;;;;;30.82;32.15;98522.63;4365831;32;20074;-82
2023/07/18 08:26:15;;;;;;;8.90;3.70;;;;;;;30.84;31.54;98525.09;4367890;32;20112;-81
2023/07/18 08:28:42;;;;;;;9.15;2.78;;;;;;;30.75;32.07;98533.19;4365816;32;20113;-80
2023/07/18 08:31:08;;;;;;;8.82;3.80;;;;;;;30.57;31.74;98531.84;4365745;32;20473;-81
2023/07/18 08:33:44;;;;;;;8.80;3.80;;;;;;;30.71;32.20;98529.22;4365406;32;20588;-81
2023/07/18 08:36:11;;;;;;;8.68;3.72;;;;;;;31.03;32.18;98530.69;4365243;32;20100;-82
2023/07/18 08:38:38;;;;;;;9.68;3.58;;;;;;;32.16;30.28;98530.22;4364550;32;20147;-82
2023/07/18 08:41:05;;;;;;;11.15;3.55;;;;;;;32.86;29.12;98541.09;4364862;32;20103;-80
2023/07/18 08:43:33;;;;;;;8.65;3.62;;;;;;;32.87;29.10;98543.59;4364776;32;20470;-81
2023/07/18 08:46:01;;;;;;;9.38;3.80;;;;;;;32.68;29.97;98537.06;4363213;32;20151;-81
2023/07/18 08:48:28;;;;;;;9.77;3.90;;;;;;;32.46;28.88;98538.94;4364437;32;20469;-82
2023/07/18 08:50:55;;;;;;;8.60;3.42;;;;;;;32.78;29.09;98536.72;4364394;32;20079;-81
2023/07/18 08:53:22;;;;;;;9.57;4.00;;;;;;;31.77;29.60;98533.31;4364223;32;20130;-81
2023/07/18 08:55:49;;;;;;;11.30;3.90;;;;;;;31.88;30.28;98534.66;4365157;32;20126;-81
2023/07/18 08:58:18;;;;;;;7.85;3.62;;;;;;;31.91;30.90;98535.13;4363778;32;20117;-82
2023/07/18 09:00:46;;;;;;;8.20;3.70;;;;;;;32.46;29.32;98536.28;4363501;32;20445;-81
2023/07/18 09:03:17;;;;;;;9.05;3.75;;;;;;;33.15;29.12;98540.03;4364605;32;20137;-80
2023/07/18 09:05:44;;;;;;;11.35;3.80;;;;;;;33.43;28.01;98537.31;4364600;32;20107;-82
2023/07/18 09:08:11;;;;;;;8.60;3.60;;;;;;;33.48;28.72;98541.03;4362816;32;20118;-82
2023/07/18 09:10:38;;;;;;;12.27;3.90;;;;;;;33.29;28.17;98542.59;4364035;32;20094;-82
2023/07/18 09:13:10;;;;;;;8.13;3.83;;;;;;;33.60;28.28;98536.78;4363022;32;20070;-82
2023/07/18 09:15:37;;;;;;;10.45;4.18;;;;;;;34.07;28.61;98532.38;4363317;32;20103;-82
2023/07/18 09:18:06;;;;;;;9.38;4.00;;;;;;;34.23;27.98;98533.81;4365427;32;20559;-82
2023/07/18 09:20:33;;;;;;;8.05;3.72;;;;;;;33.53;28.36;98538.59;4366073;32;20486;-82
2023/07/18 09:23:03;;;;;;;8.10;3.62;;;;;;;32.98;29.41;98535.03;4365221;32;20154;-84
2023/07/18 09:25:30;;;;;;;9.02;3.67;;;;;;;33.79;28.75;98542.38;4367860;32;20064;-81
2023/07/18 09:27:57;;;;;;;9.32;4.20;;;;;;;34.32;28.66;98539.81;4364315;32;20497;-82
2023/07/18 09:30:30;;;;;;;8.90;3.78;;;;;;;33.54;28.66;98534.06;4362948;32;20105;-83
2023/07/18 09:32:57;;;;;;;8.85;4.00;;;;;;;33.14;29.13;98533.84;4362894;32;20083;-83
2023/07/18 09:35:27;;;;;;;9.13;3.92;;;;;;;33.42;28.10;98533.81;4363947;32;20113;-83
2023/07/18 09:37:55;;;;;;;8.88;3.90;;;;;;;34.61;28.63;98530.56;4365958;32;20118;-82
2023/07/18 09:40:22;;;;;;;7.03;3.62;;;;;;;32.83;29.38;98531.63;4364790;32;20141;-83
2023/07/18 09:42:50;;;;;;;10.27;4.47;;;;;;;33.06;29.50;98536.69;4365638;32;20137;-82
2023/07/18 09:45:17;;;;;;;8.75;4.00;;;;;;;33.58;28.86;98538.81;4365973;32;20171;-83
2023/07/18 09:47:44;;;;;;;9.10;3.87;;;;;;;33.13;29.89;98526.03;4365852;32;20147;-83
2023/07/18 09:50:13;;;;;;;10.07;4.35;;;;;;;32.03;31.00;98521.28;4365567;32;20174;-83
2023/07/18 09:52:50;;;;;;;8.93;4.10;;;;;;;32.51;31.15;98517.81;4365674;32;20109;-83
2023/07/18 09:55:22;;;;;;;9.48;4.40;;;;;;;32.08;30.83;98519.66;4365611;32;20099;-83
2023/07/18 09:57:49;;;;;;;12.02;4.18;;;;;;;32.26;30.34;98513.06;4365732;32;20111;-83
2023/07/18 10:00:17;;;;;;;9.63;3.72;;;;;;;32.87;29.95;98506.19;4366025;32;20197;-83
2023/07/18 10:02:44;;;;;;;10.75;4.20;;;;;;;32.47;30.85;98511.22;4364322;32;20110;-83
2023/07/18 10:05:14;;;;;;;13.13;5.80;;;;;;;33.66;28.73;98509.19;4365773;32;20159;-83
2023/07/18 10:07:41;;;;;;;10.40;4.62;;;;;;;34.81;28.35;98509.91;4365694;32;20118;-83
2023/07/18 10:10:10;;;;;;;9.68;4.28;;;;;;;35.34;27.28;98505.22;4363963;32;20536;-83
2023/07/18 10:12:38;;;;;;;10.70;3.92;;;;;;;35.76;26.56;98502.16;4365015;32;20465;-84
2023/07/18 10:15:05;;;;;;;9.88;3.85;;;;;;;34.93;27.93;98491.34;4366191;32;20121;-82
2023/07/18 10:17:34;;;;;;;9.70;4.10;;;;;;;34.16;29.65;98496.34;4367436;32;20127;-81
2023/07/18 10:20:06;;;;;;;8.82;4.10;;;;;;;33.79;28.99;98488.84;4366006;32;20125;-81
2023/07/18 10:22:33;;;;;;;8.73;3.87;;;;;;;35.13;28.53;98484.06;4364434;32;20170;-81
2023/07/18 10:25:05;;;;;;;9.48;3.95;;;;;;;34.92;28.40;98489.72;4369185;32;20060;-78
2023/07/18 10:27:40;;;;;;;9.93;4.20;;;;;;;34.86;27.69;98482.47;4373341;32;20756;-80
2023/07/18 10:30:18;;;;;;;8.43;3.80;;;;;;;34.93;27.00;98483.31;4367785;32;20086;-80
2023/07/18 10:32:57;;;;;;;10.23;4.18;;;;;;;34.65;27.57;98486.22;4375709;32;20105;-80
2023/07/18 10:35:26;;;;;;;10.15;4.62;;;;;;;33.67;28.75;98488.62;4379380;32;20081;-79
2023/07/18 10:37:55;;;;;;;9.63;4.18;;;;;;;34.21;28.06;98476.97;4379344;32;20079;-79
2023/07/18 10:40:39;;;;;;;8.88;4.30;;;;;;;34.22;27.86;98471.41;4376163;32;20161;-79
2023/07/18 10:43:09;;;;;;;7.43;4.00;;;;;;;34.85;28.29;98468.25;4378393;32;20122;-79
2023/07/18 10:45:40;;;;;;;9.88;4.28;;;;;;;34.95;28.50;98470.50;4378317;32;20112;-79
2023/07/18 10:48:30;;;;;;;11.77;4.25;;;;;;;35.01;29.34;98469.69;4377508;32;20111;-79
2023/07/18 10:50:58;;;;;;;10.20;4.47;;;;;;;34.76;28.87;98470.31;4375908;32;20063;-79
2023/07/18 10:53:24;;;;;;;13.13;4.78;;;;;;;34.90;27.68;98456.94;4379679;32;20117;-80
2023/07/18 10:55:53;;;;;;;17.65;5.80;;;;;;;35.14;27.73;98456.22;4379904;32;20114;-80
2023/07/18 10:58:21;;;;;;;9.13;4.00;;;;;;;34.90;29.44;98451.56;4373556;32;20144;-80
2023/07/18 11:00:49;;;;;;;8.57;4.10;;;;;;;35.21;27.92;98445.47;4372059;32;20088;-81
2023/07/18 11:03:27;;;;;;;10.23;5.05;;;;;;;35.57;28.23;98450.25;4366246;32;20074;-85
2023/07/18 11:05:54;;;;;;;10.60;4.70;;;;;;;35.91;26.95;98444.44;4365311;32;20377;-83
2023/07/18 11:08:29;;;;;;;9.98;4.25;;;;;;;35.49;27.58;98437.91;4365275;32;20094;-84
2023/07/18 11:10:58;;;;;;;15.52;4.53;;;;;;;35.86;27.55;98438.06;4364979;32;20441;-84
2023/07/18 11:13:30;;;;;;;21.95;5.50;;;;;;;36.61;27.12;98441.59;4365166;32;20079;-84
2023/07/18 11:16:10;;;;;;;10.13;4.15;;;;;;;36.46;26.00;98435.72;4369690;32;20110;-85
2023/07/18 11:18:39;;;;;;;8.82;3.50;;;;;;;34.77;28.20;98422.91;4368839;32;20111;-82
2023/07/18 11:21:07;;;;;;;7.55;3.95;;;;;;;33.86;29.64;98425.44;4368760;32;20067;-82
2023/07/18 11:26:39;;;;;;;26.45;5.10;;;;;;;35.26;28.39;98427.69;4368911;32;20095;-83
2023/07/18 11:32:11;;;;;;;12.80;4.70;;;;;;;35.56;28.93;98422.59;4365975;32;20472;-83
2023/07/18 11:34:40;;;;;;;9.15;3.95;;;;;;;35.59;29.64;98421.31;4366187;32;20146;-85
2023/07/18 11:37:07;;;;;;;8.68;4.00;;;;;;;35.93;28.35;98412.00;4365109;32;20150;-84
2023/07/18 11:39:34;;;;;;;10.65;4.50;;;;;;;36.02;26.98;98415.25;4365044;32;20112;-84
2023/07/18 11:42:08;;;;;;;11.75;4.40;;;;;;;35.72;27.84;98404.31;4364768;32;20154;-83
2023/07/18 11:44:42;;;;;;;9.13;4.00;;;;;;;35.79;29.75;98402.41;4365047;32;20145;-84
2023/07/18 11:47:12;;;;;;;9.05;4.07;;;;;;;36.33;29.08;98411.66;4364982;32;20155;-84
2023/07/18 11:49:39;;;;;;;9.45;4.10;;;;;;;36.64;26.98;98410.75;4364943;32;20532;-85
2023/07/18 11:52:08;;;;;;;8.55;4.40;;;;;;;37.19;27.01;98402.63;4365054;32;20490;-84
2023/07/18 11:54:35;;;;;;;8.52;4.40;;;;;;;36.82;26.23;98401.84;4368380;32;20469;-84